sensor_id;sensor_type;location;lat;lon;timestamp;P1;durP1;ratioP1;P2;durP2;ratioP2
19869;SDS011;10097;50.862;4.696;2022-08-11T00:00:20;5.07;;;1.85;;
19869;SDS011;10097;50.862;4.696;2022-08-11T00:02:56;4.90;;;1.80;;
19869;SDS011;10097;50.862;4.696;2022-08-11T00:05:29;5.38;;;2.00;;
19869;SDS011;10097;50.862;4.696;2022-08-11T00:07:56;4.35;;;1.90;;
19869;SDS011;10097;50.862;4.696;2022-08-11T00:10:24;3.95;;;2.00;;
19869;SDS011;10097;50.862;4.696;2022-08-11T00:12:52;6.25;;;2.05;;
19869;SDS011;10097;50.862;4.696;2022-08-11T00:15:23;5.80;;;1.90;;
19869;SDS011;10097;50.862;4.696;2022-08-11T00:17:59;6.32;;;1.92;;
19869;SDS011;10097;50.862;4.696;2022-08-11T00:20:33;3.85;;;1.80;;
19869;SDS011;10097;50.862;4.696;2022-08-11T00:23:07;7.22;;;2.40;;
19869;SDS011;10097;50.862;4.696;2022-08-11T00:25:42;3.42;;;1.70;;
19869;SDS011;10097;50.862;4.696;2022-08-11T00:28:29;6.43;;;2.10;;
19869;SDS011;10097;50.862;4.696;2022-08-11T00:30:57;5.68;;;2.20;;
19869;SDS011;10097;50.862;4.696;2022-08-11T00:33:41;2.90;;;1.77;;
19869;SDS011;10097;50.862;4.696;2022-08-11T00:36:09;6.13;;;2.00;;
19869;SDS011;10097;50.862;4.696;2022-08-11T00:38:39;5.32;;;2.28;;
19869;SDS011;10097;50.862;4.696;2022-08-11T00:47:14;4.72;;;2.13;;
19869;SDS011;10097;50.862;4.696;2022-08-11T00:49:23;4.05;;;1.88;;
19869;SDS011;10097;50.862;4.696;2022-08-11T01:00:31;6.00;;;2.50;;
19869;SDS011;10097;50.862;4.696;2022-08-11T01:32:55;5.68;;;2.50;;
19869;SDS011;10097;50.862;4.696;2022-08-11T01:35:20;6.80;;;2.38;;
19869;SDS011;10097;50.862;4.696;2022-08-11T01:43:50;7.30;;;2.17;;
19869;SDS011;10097;50.862;4.696;2022-08-11T01:46:51;4.13;;;1.92;;
19869;SDS011;10097;50.862;4.696;2022-08-11T01:50:02;3.38;;;2.03;;
19869;SDS011;10097;50.862;4.696;2022-08-11T01:52:53;3.67;;;2.15;;
19869;SDS011;10097;50.862;4.696;2022-08-11T01:55:28;5.35;;;1.75;;
19869;SDS011;10097;50.862;4.696;2022-08-11T01:58:07;5.45;;;2.50;;
19869;SDS011;10097;50.862;4.696;2022-08-11T02:00:59;4.97;;;1.88;;
19869;SDS011;10097;50.862;4.696;2022-08-11T02:20:30;6.65;;;2.60;;
19869;SDS011;10097;50.862;4.696;2022-08-11T02:42:34;5.53;;;2.50;;
19869;SDS011;10097;50.862;4.696;2022-08-11T02:57:05;4.10;;;2.08;;
19869;SDS011;10097;50.862;4.696;2022-08-11T02:59:50;4.72;;;2.40;;
19869;SDS011;10097;50.862;4.696;2022-08-11T03:02:41;5.45;;;2.67;;
19869;SDS011;10097;50.862;4.696;2022-08-11T03:05:25;4.72;;;2.28;;
19869;SDS011;10097;50.862;4.696;2022-08-11T03:10:52;3.63;;;2.10;;
19869;SDS011;10097;50.862;4.696;2022-08-11T03:13:48;7.07;;;2.80;;
19869;SDS011;10097;50.862;4.696;2022-08-11T03:16:57;5.97;;;2.40;;
19869;SDS011;10097;50.862;4.696;2022-08-11T03:22:32;5.20;;;2.35;;
19869;SDS011;10097;50.862;4.696;2022-08-11T03:31:00;7.40;;;2.55;;
19869;SDS011;10097;50.862;4.696;2022-08-11T03:33:41;7.80;;;2.42;;
19869;SDS011;10097;50.862;4.696;2022-08-11T03:36:40;6.80;;;2.80;;
19869;SDS011;10097;50.862;4.696;2022-08-11T03:42:20;6.25;;;2.45;;
19869;SDS011;10097;50.862;4.696;2022-08-11T03:50:46;5.78;;;2.65;;
19869;SDS011;10097;50.862;4.696;2022-08-11T04:02:07;6.70;;;3.00;;
19869;SDS011;10097;50.862;4.696;2022-08-11T04:41:50;5.32;;;2.40;;
19869;SDS011;10097;50.862;4.696;2022-08-11T04:54:18;6.03;;;2.75;;
19869;SDS011;10097;50.862;4.696;2022-08-11T04:56:42;7.40;;;3.00;;
19869;SDS011;10097;50.862;4.696;2022-08-11T05:08:13;10.18;;;3.10;;
19869;SDS011;10097;50.862;4.696;2022-08-11T05:17:13;9.05;;;3.30;;
19869;SDS011;10097;50.862;4.696;2022-08-11T05:20:07;9.45;;;3.20;;
19869;SDS011;10097;50.862;4.696;2022-08-11T05:22:53;6.00;;;2.90;;
19869;SDS011;10097;50.862;4.696;2022-08-11T05:25:43;6.50;;;2.75;;
19869;SDS011;10097;50.862;4.696;2022-08-11T05:28:34;6.25;;;3.20;;
19869;SDS011;10097;50.862;4.696;2022-08-11T05:31:31;7.97;;;3.45;;
19869;SDS011;10097;50.862;4.696;2022-08-11T05:34:26;12.13;;;3.17;;
19869;SDS011;10097;50.862;4.696;2022-08-11T05:39:59;7.75;;;2.95;;
19869;SDS011;10097;50.862;4.696;2022-08-11T05:42:48;9.10;;;3.03;;
19869;SDS011;10097;50.862;4.696;2022-08-11T05:45:34;7.43;;;3.38;;
19869;SDS011;10097;50.862;4.696;2022-08-11T05:48:19;7.85;;;3.70;;
19869;SDS011;10097;50.862;4.696;2022-08-11T05:51:04;6.95;;;2.92;;
19869;SDS011;10097;50.862;4.696;2022-08-11T05:53:53;11.02;;;4.05;;
19869;SDS011;10097;50.862;4.696;2022-08-11T05:56:41;7.93;;;3.97;;
19869;SDS011;10097;50.862;4.696;2022-08-11T05:59:15;8.23;;;3.63;;
19869;SDS011;10097;50.862;4.696;2022-08-11T06:01:42;10.77;;;3.63;;
19869;SDS011;10097;50.862;4.696;2022-08-11T06:04:14;11.70;;;3.95;;
19869;SDS011;10097;50.862;4.696;2022-08-11T06:06:52;9.43;;;3.95;;
19869;SDS011;10097;50.862;4.696;2022-08-11T06:09:37;10.07;;;4.00;;
19869;SDS011;10097;50.862;4.696;2022-08-11T06:12:30;9.60;;;3.08;;
19869;SDS011;10097;50.862;4.696;2022-08-11T06:15:02;10.70;;;3.63;;
19869;SDS011;10097;50.862;4.696;2022-08-11T06:17:30;10.70;;;4.10;;
19869;SDS011;10097;50.862;4.696;2022-08-11T06:19:59;12.60;;;4.15;;
19869;SDS011;10097;50.862;4.696;2022-08-11T06:22:29;10.18;;;4.03;;
19869;SDS011;10097;50.862;4.696;2022-08-11T06:24:57;12.30;;;4.07;;
19869;SDS011;10097;50.862;4.696;2022-08-11T06:27:26;11.07;;;4.20;;
19869;SDS011;10097;50.862;4.696;2022-08-11T06:29:58;12.00;;;4.10;;
19869;SDS011;10097;50.862;4.696;2022-08-11T06:32:27;11.27;;;3.50;;
19869;SDS011;10097;50.862;4.696;2022-08-11T06:43:09;12.80;;;4.10;;
19869;SDS011;10097;50.862;4.696;2022-08-11T06:46:01;10.98;;;4.63;;
19869;SDS011;10097;50.862;4.696;2022-08-11T06:48:31;15.40;;;4.15;;
19869;SDS011;10097;50.862;4.696;2022-08-11T06:51:04;12.18;;;2.95;;
19869;SDS011;10097;50.862;4.696;2022-08-11T06:53:47;11.15;;;3.83;;
19869;SDS011;10097;50.862;4.696;2022-08-11T06:56:20;9.48;;;3.10;;
19869;SDS011;10097;50.862;4.696;2022-08-11T06:59:08;10.70;;;3.42;;
19869;SDS011;10097;50.862;4.696;2022-08-11T07:01:57;8.98;;;3.03;;
19869;SDS011;10097;50.862;4.696;2022-08-11T07:04:44;10.55;;;4.03;;
19869;SDS011;10097;50.862;4.696;2022-08-11T07:13:13;10.60;;;3.28;;
19869;SDS011;10097;50.862;4.696;2022-08-11T07:16:00;8.60;;;3.25;;
19869;SDS011;10097;50.862;4.696;2022-08-11T07:18:28;10.55;;;3.38;;
19869;SDS011;10097;50.862;4.696;2022-08-11T07:21:23;13.15;;;3.22;;
19869;SDS011;10097;50.862;4.696;2022-08-11T07:24:14;9.00;;;2.83;;
19869;SDS011;10097;50.862;4.696;2022-08-11T07:27:01;7.60;;;3.08;;
19869;SDS011;10097;50.862;4.696;2022-08-11T07:29:49;11.10;;;3.05;;
19869;SDS011;10097;50.862;4.696;2022-08-11T07:32:23;8.73;;;3.10;;
19869;SDS011;10097;50.862;4.696;2022-08-11T07:34:57;12.43;;;3.55;;
19869;SDS011;10097;50.862;4.696;2022-08-11T07:37:28;12.00;;;2.92;;
19869;SDS011;10097;50.862;4.696;2022-08-11T07:39:57;9.38;;;3.03;;
19869;SDS011;10097;50.862;4.696;2022-08-11T07:42:26;13.35;;;3.03;;
19869;SDS011;10097;50.862;4.696;2022-08-11T07:44:55;15.18;;;4.05;;
19869;SDS011;10097;50.862;4.696;2022-08-11T07:47:39;9.20;;;2.90;;
19869;SDS011;10097;50.862;4.696;2022-08-11T07:50:25;10.60;;;2.47;;
19869;SDS011;10097;50.862;4.696;2022-08-11T07:53:09;9.00;;;2.60;;
19869;SDS011;10097;50.862;4.696;2022-08-11T07:55:38;8.10;;;2.83;;
19869;SDS011;10097;50.862;4.696;2022-08-11T07:58:05;8.27;;;2.83;;
19869;SDS011;10097;50.862;4.696;2022-08-11T08:00:54;9.02;;;3.22;;
19869;SDS011;10097;50.862;4.696;2022-08-11T08:03:40;8.18;;;2.85;;
19869;SDS011;10097;50.862;4.696;2022-08-11T08:06:26;14.35;;;3.15;;
19869;SDS011;10097;50.862;4.696;2022-08-11T08:09:13;12.30;;;3.72;;
19869;SDS011;10097;50.862;4.696;2022-08-11T08:12:03;6.80;;;2.90;;
19869;SDS011;10097;50.862;4.696;2022-08-11T08:14:48;8.30;;;2.40;;
19869;SDS011;10097;50.862;4.696;2022-08-11T08:17:34;8.07;;;2.53;;
19869;SDS011;10097;50.862;4.696;2022-08-11T08:20:18;13.27;;;2.85;;
19869;SDS011;10097;50.862;4.696;2022-08-11T08:22:50;12.55;;;2.95;;
19869;SDS011;10097;50.862;4.696;2022-08-11T08:25:22;7.68;;;2.58;;
19869;SDS011;10097;50.862;4.696;2022-08-11T08:27:52;7.15;;;2.53;;
19869;SDS011;10097;50.862;4.696;2022-08-11T08:30:20;5.13;;;2.42;;
19869;SDS011;10097;50.862;4.696;2022-08-11T08:33:04;11.85;;;2.40;;
19869;SDS011;10097;50.862;4.696;2022-08-11T08:35:31;8.65;;;2.45;;
19869;SDS011;10097;50.862;4.696;2022-08-11T08:37:59;7.45;;;3.10;;
19869;SDS011;10097;50.862;4.696;2022-08-11T08:40:25;12.20;;;3.47;;
19869;SDS011;10097;50.862;4.696;2022-08-11T08:42:52;11.38;;;2.85;;
19869;SDS011;10097;50.862;4.696;2022-08-11T08:45:21;9.30;;;2.60;;
19869;SDS011;10097;50.862;4.696;2022-08-11T08:47:54;7.22;;;2.50;;
19869;SDS011;10097;50.862;4.696;2022-08-11T08:50:26;7.70;;;2.58;;
19869;SDS011;10097;50.862;4.696;2022-08-11T08:53:14;14.38;;;3.08;;
19869;SDS011;10097;50.862;4.696;2022-08-11T08:55:45;10.07;;;2.58;;
19869;SDS011;10097;50.862;4.696;2022-08-11T08:58:12;12.40;;;3.00;;
19869;SDS011;10097;50.862;4.696;2022-08-11T09:00:40;10.40;;;2.80;;
19869;SDS011;10097;50.862;4.696;2022-08-11T09:03:09;6.80;;;2.35;;
19869;SDS011;10097;50.862;4.696;2022-08-11T09:05:35;7.10;;;2.60;;
19869;SDS011;10097;50.862;4.696;2022-08-11T09:08:03;6.85;;;2.40;;
19869;SDS011;10097;50.862;4.696;2022-08-11T09:10:29;8.63;;;2.83;;
19869;SDS011;10097;50.862;4.696;2022-08-11T09:12:55;11.02;;;2.60;;
19869;SDS011;10097;50.862;4.696;2022-08-11T09:15:26;6.05;;;2.60;;
19869;SDS011;10097;50.862;4.696;2022-08-11T09:17:58;9.35;;;2.72;;
19869;SDS011;10097;50.862;4.696;2022-08-11T09:20:33;9.75;;;2.78;;
19869;SDS011;10097;50.862;4.696;2022-08-11T09:23:04;8.85;;;2.38;;
19869;SDS011;10097;50.862;4.696;2022-08-11T09:25:51;10.75;;;2.42;;
19869;SDS011;10097;50.862;4.696;2022-08-11T09:28:40;7.45;;;2.42;;
19869;SDS011;10097;50.862;4.696;2022-08-11T09:31:10;8.10;;;2.60;;
19869;SDS011;10097;50.862;4.696;2022-08-11T09:33:38;10.25;;;2.63;;
19869;SDS011;10097;50.862;4.696;2022-08-11T09:36:05;8.27;;;2.05;;
19869;SDS011;10097;50.862;4.696;2022-08-11T09:38:50;9.93;;;2.17;;
19869;SDS011;10097;50.862;4.696;2022-08-11T09:41:36;7.72;;;2.60;;
19869;SDS011;10097;50.862;4.696;2022-08-11T09:44:04;9.60;;;2.75;;
19869;SDS011;10097;50.862;4.696;2022-08-11T09:46:52;7.68;;;2.75;;
19869;SDS011;10097;50.862;4.696;2022-08-11T09:49:23;11.18;;;2.65;;
19869;SDS011;10097;50.862;4.696;2022-08-11T09:51:49;9.63;;;2.40;;
19869;SDS011;10097;50.862;4.696;2022-08-11T09:54:16;5.75;;;2.58;;
19869;SDS011;10097;50.862;4.696;2022-08-11T09:56:43;5.40;;;2.28;;
19869;SDS011;10097;50.862;4.696;2022-08-11T09:59:30;4.88;;;2.40;;
19869;SDS011;10097;50.862;4.696;2022-08-11T10:01:57;7.47;;;2.50;;
19869;SDS011;10097;50.862;4.696;2022-08-11T10:04:40;6.78;;;2.63;;
19869;SDS011;10097;50.862;4.696;2022-08-11T10:07:13;7.30;;;2.55;;
19869;SDS011;10097;50.862;4.696;2022-08-11T10:12:20;8.18;;;2.50;;
19869;SDS011;10097;50.862;4.696;2022-08-11T10:14:51;6.60;;;2.60;;
19869;SDS011;10097;50.862;4.696;2022-08-11T10:17:39;12.63;;;2.28;;
19869;SDS011;10097;50.862;4.696;2022-08-11T10:20:31;8.75;;;2.65;;
19869;SDS011;10097;50.862;4.696;2022-08-11T10:22:59;9.13;;;2.35;;
19869;SDS011;10097;50.862;4.696;2022-08-11T10:25:45;9.13;;;2.40;;
19869;SDS011;10097;50.862;4.696;2022-08-11T10:28:29;9.48;;;2.58;;
19869;SDS011;10097;50.862;4.696;2022-08-11T10:30:57;7.15;;;2.15;;
19869;SDS011;10097;50.862;4.696;2022-08-11T10:33:42;8.50;;;1.92;;
19869;SDS011;10097;50.862;4.696;2022-08-11T10:36:27;8.93;;;2.47;;
19869;SDS011;10097;50.862;4.696;2022-08-11T10:38:59;6.22;;;2.42;;
19869;SDS011;10097;50.862;4.696;2022-08-11T10:41:29;7.03;;;2.28;;
19869;SDS011;10097;50.862;4.696;2022-08-11T10:44:16;6.80;;;2.15;;
19869;SDS011;10097;50.862;4.696;2022-08-11T10:46:44;4.05;;;2.10;;
19869;SDS011;10097;50.862;4.696;2022-08-11T10:49:30;5.13;;;1.92;;
19869;SDS011;10097;50.862;4.696;2022-08-11T10:51:57;11.73;;;2.50;;
19869;SDS011;10097;50.862;4.696;2022-08-11T10:54:42;6.75;;;2.25;;
19869;SDS011;10097;50.862;4.696;2022-08-11T10:57:27;7.85;;;2.17;;
19869;SDS011;10097;50.862;4.696;2022-08-11T11:00:13;5.40;;;2.03;;
19869;SDS011;10097;50.862;4.696;2022-08-11T11:02:43;7.20;;;1.73;;
19869;SDS011;10097;50.862;4.696;2022-08-11T11:05:15;8.52;;;1.90;;
19869;SDS011;10097;50.862;4.696;2022-08-11T11:10:26;4.63;;;1.83;;
19869;SDS011;10097;50.862;4.696;2022-08-11T11:12:54;8.95;;;2.20;;
19869;SDS011;10097;50.862;4.696;2022-08-11T11:15:40;9.40;;;1.98;;
19869;SDS011;10097;50.862;4.696;2022-08-11T11:18:28;7.57;;;1.85;;
19869;SDS011;10097;50.862;4.696;2022-08-11T11:21:09;5.32;;;1.88;;
19869;SDS011;10097;50.862;4.696;2022-08-11T11:23:42;7.30;;;1.80;;
19869;SDS011;10097;50.862;4.696;2022-08-11T11:29:26;7.25;;;2.35;;
19869;SDS011;10097;50.862;4.696;2022-08-11T11:32:26;9.23;;;1.83;;
19869;SDS011;10097;50.862;4.696;2022-08-11T11:37:52;7.82;;;1.98;;
19869;SDS011;10097;50.862;4.696;2022-08-11T11:40:21;4.95;;;1.98;;
19869;SDS011;10097;50.862;4.696;2022-08-11T11:42:51;4.88;;;2.00;;
19869;SDS011;10097;50.862;4.696;2022-08-11T11:45:21;3.97;;;1.90;;
19869;SDS011;10097;50.862;4.696;2022-08-11T11:47:49;9.15;;;2.13;;
19869;SDS011;10097;50.862;4.696;2022-08-11T11:53:03;4.85;;;2.42;;
19869;SDS011;10097;50.862;4.696;2022-08-11T11:55:34;7.70;;;1.98;;
19869;SDS011;10097;50.862;4.696;2022-08-11T11:58:02;9.77;;;1.95;;
19869;SDS011;10097;50.862;4.696;2022-08-11T12:00:48;4.05;;;1.83;;
19869;SDS011;10097;50.862;4.696;2022-08-11T12:03:35;7.28;;;1.90;;
19869;SDS011;10097;50.862;4.696;2022-08-11T12:06:01;5.78;;;1.88;;
19869;SDS011;10097;50.862;4.696;2022-08-11T12:08:28;8.18;;;2.17;;
19869;SDS011;10097;50.862;4.696;2022-08-11T12:11:06;4.32;;;2.03;;
19869;SDS011;10097;50.862;4.696;2022-08-11T12:13:53;5.75;;;1.90;;
19869;SDS011;10097;50.862;4.696;2022-08-11T12:16:21;7.68;;;1.73;;
19869;SDS011;10097;50.862;4.696;2022-08-11T12:18:50;3.70;;;1.73;;
19869;SDS011;10097;50.862;4.696;2022-08-11T12:21:19;4.82;;;1.90;;
19869;SDS011;10097;50.862;4.696;2022-08-11T12:23:49;7.13;;;1.83;;
19869;SDS011;10097;50.862;4.696;2022-08-11T12:26:33;5.05;;;1.70;;
19869;SDS011;10097;50.862;4.696;2022-08-11T12:29:23;7.45;;;1.80;;
19869;SDS011;10097;50.862;4.696;2022-08-11T12:31:51;4.32;;;1.77;;
19869;SDS011;10097;50.862;4.696;2022-08-11T12:34:18;4.47;;;1.92;;
19869;SDS011;10097;50.862;4.696;2022-08-11T12:36:45;3.63;;;1.63;;
19869;SDS011;10097;50.862;4.696;2022-08-11T12:39:18;8.32;;;1.83;;
19869;SDS011;10097;50.862;4.696;2022-08-11T12:42:08;4.32;;;1.65;;
19869;SDS011;10097;50.862;4.696;2022-08-11T12:44:54;6.30;;;2.10;;
19869;SDS011;10097;50.862;4.696;2022-08-11T12:47:42;9.23;;;1.90;;
19869;SDS011;10097;50.862;4.696;2022-08-11T12:50:32;4.68;;;1.80;;
19869;SDS011;10097;50.862;4.696;2022-08-11T12:53:19;10.23;;;2.30;;
19869;SDS011;10097;50.862;4.696;2022-08-11T12:55:50;4.07;;;1.80;;
19869;SDS011;10097;50.862;4.696;2022-08-11T12:58:38;9.80;;;2.20;;
19869;SDS011;10097;50.862;4.696;2022-08-11T13:01:06;7.05;;;1.92;;
19869;SDS011;10097;50.862;4.696;2022-08-11T13:03:50;6.70;;;1.80;;
19869;SDS011;10097;50.862;4.696;2022-08-11T13:06:35;3.97;;;2.00;;
19869;SDS011;10097;50.862;4.696;2022-08-11T13:09:01;3.83;;;1.90;;
19869;SDS011;10097;50.862;4.696;2022-08-11T13:11:28;7.78;;;1.98;;
19869;SDS011;10097;50.862;4.696;2022-08-11T13:14:14;12.05;;;2.17;;
19869;SDS011;10097;50.862;4.696;2022-08-11T13:16:41;7.50;;;2.05;;
19869;SDS011;10097;50.862;4.696;2022-08-11T13:19:27;5.00;;;2.15;;
19869;SDS011;10097;50.862;4.696;2022-08-11T13:21:53;6.15;;;1.95;;
19869;SDS011;10097;50.862;4.696;2022-08-11T13:24:21;6.95;;;2.08;;
19869;SDS011;10097;50.862;4.696;2022-08-11T13:26:48;4.15;;;2.03;;
19869;SDS011;10097;50.862;4.696;2022-08-11T13:29:23;5.07;;;2.05;;
19869;SDS011;10097;50.862;4.696;2022-08-11T13:31:50;5.72;;;2.20;;
19869;SDS011;10097;50.862;4.696;2022-08-11T13:34:18;5.40;;;2.28;;
19869;SDS011;10097;50.862;4.696;2022-08-11T13:36:45;5.75;;;1.77;;
19869;SDS011;10097;50.862;4.696;2022-08-11T13:39:16;5.55;;;2.20;;
19869;SDS011;10097;50.862;4.696;2022-08-11T13:41:42;16.35;;;2.13;;
19869;SDS011;10097;50.862;4.696;2022-08-11T13:44:12;4.53;;;1.90;;
19869;SDS011;10097;50.862;4.696;2022-08-11T13:46:40;10.73;;;2.10;;
19869;SDS011;10097;50.862;4.696;2022-08-11T13:49:07;6.85;;;1.95;;
19869;SDS011;10097;50.862;4.696;2022-08-11T13:51:35;4.50;;;2.08;;
19869;SDS011;10097;50.862;4.696;2022-08-11T13:56:33;5.25;;;1.80;;
19869;SDS011;10097;50.862;4.696;2022-08-11T13:59:03;10.15;;;2.25;;
19869;SDS011;10097;50.862;4.696;2022-08-11T14:01:32;4.22;;;2.08;;
19869;SDS011;10097;50.862;4.696;2022-08-11T14:04:07;4.53;;;2.20;;
19869;SDS011;10097;50.862;4.696;2022-08-11T14:06:36;5.50;;;1.95;;
19869;SDS011;10097;50.862;4.696;2022-08-11T14:09:07;6.88;;;2.53;;
19869;SDS011;10097;50.862;4.696;2022-08-11T14:11:33;5.55;;;2.15;;
19869;SDS011;10097;50.862;4.696;2022-08-11T14:14:24;6.20;;;2.25;;
19869;SDS011;10097;50.862;4.696;2022-08-11T14:16:56;5.57;;;2.10;;
19869;SDS011;10097;50.862;4.696;2022-08-11T14:19:27;5.15;;;2.30;;
19869;SDS011;10097;50.862;4.696;2022-08-11T14:21:56;8.20;;;2.38;;
19869;SDS011;10097;50.862;4.696;2022-08-11T14:24:31;6.82;;;2.22;;
19869;SDS011;10097;50.862;4.696;2022-08-11T14:26:59;4.82;;;2.13;;
19869;SDS011;10097;50.862;4.696;2022-08-11T14:29:26;3.72;;;2.22;;
19869;SDS011;10097;50.862;4.696;2022-08-11T14:31:53;4.25;;;2.00;;
19869;SDS011;10097;50.862;4.696;2022-08-11T14:34:22;6.80;;;2.20;;
19869;SDS011;10097;50.862;4.696;2022-08-11T14:36:53;5.75;;;2.03;;
19869;SDS011;10097;50.862;4.696;2022-08-11T14:39:24;4.30;;;2.28;;
19869;SDS011;10097;50.862;4.696;2022-08-11T14:42:00;9.27;;;2.22;;
19869;SDS011;10097;50.862;4.696;2022-08-11T14:44:49;10.10;;;2.17;;
19869;SDS011;10097;50.862;4.696;2022-08-11T14:47:36;5.45;;;2.22;;
19869;SDS011;10097;50.862;4.696;2022-08-11T14:50:05;7.68;;;2.50;;
19869;SDS011;10097;50.862;4.696;2022-08-11T14:52:32;5.50;;;2.20;;
19869;SDS011;10097;50.862;4.696;2022-08-11T14:54:59;4.88;;;2.05;;
19869;SDS011;10097;50.862;4.696;2022-08-11T14:57:44;6.45;;;1.98;;
19869;SDS011;10097;50.862;4.696;2022-08-11T15:00:12;4.93;;;2.10;;
19869;SDS011;10097;50.862;4.696;2022-08-11T15:02:45;10.25;;;2.33;;
19869;SDS011;10097;50.862;4.696;2022-08-11T15:05:34;4.65;;;2.47;;
19869;SDS011;10097;50.862;4.696;2022-08-11T15:08:04;10.95;;;2.20;;
19869;SDS011;10097;50.862;4.696;2022-08-11T15:10:30;7.22;;;1.88;;
19869;SDS011;10097;50.862;4.696;2022-08-11T15:12:57;5.80;;;2.40;;
19869;SDS011;10097;50.862;4.696;2022-08-11T15:15:24;12.75;;;2.67;;
19869;SDS011;10097;50.862;4.696;2022-08-11T15:18:10;10.63;;;2.55;;
19869;SDS011;10097;50.862;4.696;2022-08-11T15:20:40;5.05;;;1.80;;
19869;SDS011;10097;50.862;4.696;2022-08-11T15:23:26;5.93;;;1.85;;
19869;SDS011;10097;50.862;4.696;2022-08-11T15:26:45;4.22;;;1.75;;
19869;SDS011;10097;50.862;4.696;2022-08-11T15:29:23;5.25;;;2.03;;
19869;SDS011;10097;50.862;4.696;2022-08-11T15:32:11;9.90;;;2.00;;
19869;SDS011;10097;50.862;4.696;2022-08-11T15:34:47;5.00;;;1.92;;
19869;SDS011;10097;50.862;4.696;2022-08-11T15:37:36;4.82;;;1.70;;
19869;SDS011;10097;50.862;4.696;2022-08-11T15:40:10;12.10;;;3.03;;
19869;SDS011;10097;50.862;4.696;2022-08-11T15:43:06;7.70;;;2.10;;
19869;SDS011;10097;50.862;4.696;2022-08-11T15:45:55;12.07;;;1.95;;
19869;SDS011;10097;50.862;4.696;2022-08-11T15:51:08;5.88;;;2.05;;
19869;SDS011;10097;50.862;4.696;2022-08-11T15:53:51;4.55;;;1.70;;
19869;SDS011;10097;50.862;4.696;2022-08-11T15:56:19;6.55;;;2.13;;
19869;SDS011;10097;50.862;4.696;2022-08-11T15:58:49;5.80;;;2.38;;
19869;SDS011;10097;50.862;4.696;2022-08-11T16:01:35;5.40;;;2.33;;
19869;SDS011;10097;50.862;4.696;2022-08-11T16:04:22;6.25;;;1.85;;
19869;SDS011;10097;50.862;4.696;2022-08-11T16:09:35;3.83;;;2.10;;
19869;SDS011;10097;50.862;4.696;2022-08-11T16:12:10;10.23;;;2.40;;
19869;SDS011;10097;50.862;4.696;2022-08-11T16:14:41;6.32;;;2.22;;
19869;SDS011;10097;50.862;4.696;2022-08-11T16:17:29;7.43;;;2.00;;
19869;SDS011;10097;50.862;4.696;2022-08-11T16:19:58;7.60;;;2.45;;
19869;SDS011;10097;50.862;4.696;2022-08-11T16:22:27;4.85;;;2.10;;
19869;SDS011;10097;50.862;4.696;2022-08-11T16:25:03;3.63;;;2.00;;
19869;SDS011;10097;50.862;4.696;2022-08-11T16:27:34;7.47;;;2.38;;
19869;SDS011;10097;50.862;4.696;2022-08-11T16:30:02;5.28;;;1.90;;
19869;SDS011;10097;50.862;4.696;2022-08-11T16:32:30;7.45;;;2.38;;
19869;SDS011;10097;50.862;4.696;2022-08-11T16:35:00;7.40;;;2.22;;
19869;SDS011;10097;50.862;4.696;2022-08-11T16:37:52;11.10;;;2.35;;
19869;SDS011;10097;50.862;4.696;2022-08-11T16:40:38;7.30;;;2.47;;
19869;SDS011;10097;50.862;4.696;2022-08-11T16:43:06;5.32;;;2.00;;
19869;SDS011;10097;50.862;4.696;2022-08-11T16:45:54;7.18;;;2.15;;
19869;SDS011;10097;50.862;4.696;2022-08-11T16:48:40;4.40;;;2.05;;
19869;SDS011;10097;50.862;4.696;2022-08-11T16:51:07;8.95;;;2.17;;
19869;SDS011;10097;50.862;4.696;2022-08-11T16:53:36;7.85;;;2.17;;
19869;SDS011;10097;50.862;4.696;2022-08-11T16:56:03;4.80;;;1.90;;
19869;SDS011;10097;50.862;4.696;2022-08-11T16:58:32;10.45;;;2.22;;
19869;SDS011;10097;50.862;4.696;2022-08-11T17:01:19;5.38;;;2.08;;
19869;SDS011;10097;50.862;4.696;2022-08-11T17:03:50;15.20;;;2.58;;
19869;SDS011;10097;50.862;4.696;2022-08-11T17:06:49;6.95;;;2.15;;
19869;SDS011;10097;50.862;4.696;2022-08-11T17:09:35;9.50;;;2.15;;
19869;SDS011;10097;50.862;4.696;2022-08-11T17:12:37;5.95;;;1.88;;
19869;SDS011;10097;50.862;4.696;2022-08-11T17:29:16;10.43;;;2.03;;
19869;SDS011;10097;50.862;4.696;2022-08-11T17:37:30;4.07;;;2.35;;
19869;SDS011;10097;50.862;4.696;2022-08-11T17:42:49;5.18;;;2.25;;
19869;SDS011;10097;50.862;4.696;2022-08-11T17:45:38;6.22;;;2.17;;
19869;SDS011;10097;50.862;4.696;2022-08-11T17:48:24;5.95;;;1.73;;
19869;SDS011;10097;50.862;4.696;2022-08-11T17:50:53;6.05;;;2.03;;
19869;SDS011;10097;50.862;4.696;2022-08-11T17:53:24;6.50;;;2.22;;
19869;SDS011;10097;50.862;4.696;2022-08-11T17:56:11;8.90;;;2.38;;
19869;SDS011;10097;50.862;4.696;2022-08-11T17:58:58;7.85;;;2.60;;
19869;SDS011;10097;50.862;4.696;2022-08-11T18:01:43;12.15;;;2.55;;
19869;SDS011;10097;50.862;4.696;2022-08-11T18:04:11;7.30;;;2.40;;
19869;SDS011;10097;50.862;4.696;2022-08-11T18:06:38;6.05;;;2.08;;
19869;SDS011;10097;50.862;4.696;2022-08-11T18:09:23;6.32;;;2.65;;
19869;SDS011;10097;50.862;4.696;2022-08-11T18:12:07;7.93;;;2.20;;
19869;SDS011;10097;50.862;4.696;2022-08-11T18:14:53;15.07;;;2.42;;
19869;SDS011;10097;50.862;4.696;2022-08-11T18:17:39;6.90;;;2.25;;
19869;SDS011;10097;50.862;4.696;2022-08-11T18:20:24;5.80;;;2.03;;
19869;SDS011;10097;50.862;4.696;2022-08-11T18:23:13;9.85;;;2.80;;
19869;SDS011;10097;50.862;4.696;2022-08-11T18:26:01;8.48;;;2.42;;
19869;SDS011;10097;50.862;4.696;2022-08-11T18:28:49;8.93;;;2.20;;
19869;SDS011;10097;50.862;4.696;2022-08-11T18:31:41;7.68;;;2.20;;
19869;SDS011;10097;50.862;4.696;2022-08-11T18:34:31;10.45;;;2.53;;
19869;SDS011;10097;50.862;4.696;2022-08-11T18:37:19;6.78;;;2.33;;
19869;SDS011;10097;50.862;4.696;2022-08-11T18:40:11;9.35;;;2.45;;
19869;SDS011;10097;50.862;4.696;2022-08-11T18:43:03;8.68;;;2.88;;
19869;SDS011;10097;50.862;4.696;2022-08-11T18:45:51;6.28;;;2.30;;
19869;SDS011;10097;50.862;4.696;2022-08-11T18:48:41;7.20;;;2.95;;
19869;SDS011;10097;50.862;4.696;2022-08-11T18:51:32;7.68;;;2.40;;
19869;SDS011;10097;50.862;4.696;2022-08-11T18:54:18;3.45;;;1.83;;
19869;SDS011;10097;50.862;4.696;2022-08-11T18:57:05;6.25;;;2.33;;
19869;SDS011;10097;50.862;4.696;2022-08-11T18:59:50;9.93;;;2.67;;
19869;SDS011;10097;50.862;4.696;2022-08-11T19:02:35;8.70;;;2.33;;
19869;SDS011;10097;50.862;4.696;2022-08-11T19:05:21;5.28;;;2.22;;
19869;SDS011;10097;50.862;4.696;2022-08-11T19:08:06;8.07;;;2.88;;
19869;SDS011;10097;50.862;4.696;2022-08-11T19:10:52;11.60;;;2.65;;
19869;SDS011;10097;50.862;4.696;2022-08-11T19:13:38;6.65;;;2.40;;
19869;SDS011;10097;50.862;4.696;2022-08-11T19:16:25;8.63;;;2.05;;
19869;SDS011;10097;50.862;4.696;2022-08-11T19:19:12;8.32;;;2.50;;
19869;SDS011;10097;50.862;4.696;2022-08-11T19:21:57;12.57;;;2.88;;
19869;SDS011;10097;50.862;4.696;2022-08-11T19:24:45;5.85;;;2.33;;
19869;SDS011;10097;50.862;4.696;2022-08-11T19:27:30;8.52;;;2.88;;
19869;SDS011;10097;50.862;4.696;2022-08-11T19:30:16;6.22;;;2.28;;
19869;SDS011;10097;50.862;4.696;2022-08-11T19:33:01;4.32;;;2.38;;
19869;SDS011;10097;50.862;4.696;2022-08-11T19:35:45;10.48;;;3.28;;
19869;SDS011;10097;50.862;4.696;2022-08-11T19:38:30;9.23;;;2.70;;
19869;SDS011;10097;50.862;4.696;2022-08-11T19:41:18;7.15;;;2.75;;
19869;SDS011;10097;50.862;4.696;2022-08-11T19:44:04;7.97;;;2.78;;
19869;SDS011;10097;50.862;4.696;2022-08-11T19:46:50;7.40;;;3.03;;
19869;SDS011;10097;50.862;4.696;2022-08-11T19:49:36;9.77;;;3.20;;
19869;SDS011;10097;50.862;4.696;2022-08-11T19:52:22;7.82;;;2.60;;
19869;SDS011;10097;50.862;4.696;2022-08-11T19:55:07;7.38;;;2.67;;
19869;SDS011;10097;50.862;4.696;2022-08-11T19:57:52;7.68;;;2.50;;
19869;SDS011;10097;50.862;4.696;2022-08-11T20:00:38;6.93;;;2.55;;